createdAt,value
2022-11-24T00:10:56.552Z,1004.59
2022-11-24T00:26:00.027Z,1004.55
2022-11-24T00:41:01.435Z,1004.48
2022-11-24T00:56:03.300Z,1004.54
2022-11-24T01:11:03.581Z,1004.81
2022-11-24T01:26:05.890Z,1004.55
2022-11-24T01:41:08.018Z,1004.72
2022-11-24T01:56:09.919Z,1004.84
2022-11-24T02:11:12.409Z,1004.95
2022-11-24T02:26:13.814Z,1005.04
2022-11-24T02:41:16.321Z,1005.00
2022-11-24T02:56:18.436Z,1005.08
2022-11-24T03:11:20.837Z,1005.06
2022-11-24T03:26:21.990Z,1005.36
2022-11-24T03:41:22.940Z,1005.35
2022-11-24T03:56:23.793Z,1005.51
2022-11-24T04:11:25.454Z,1005.64
2022-11-24T04:26:27.617Z,1005.50
2022-11-24T04:41:29.205Z,1005.85
2022-11-24T04:56:30.585Z,1005.94
2022-11-24T05:11:30.635Z,1006.20
2022-11-24T05:26:31.954Z,1006.27
2022-11-24T05:41:32.365Z,1006.41
2022-11-24T05:56:33.672Z,1006.54
2022-11-24T06:11:35.036Z,1006.62
2022-11-24T06:26:35.762Z,1006.81
2022-11-24T06:41:38.228Z,1006.96
2022-11-24T06:56:41.240Z,1007.05
2022-11-24T07:11:43.135Z,1007.17
2022-11-24T07:26:45.375Z,1007.24
2022-11-24T07:41:47.390Z,1007.48
2022-11-24T07:56:48.890Z,1007.57
2022-11-24T08:11:50.917Z,1007.62
2022-11-24T08:26:52.437Z,1007.69
2022-11-24T08:41:54.824Z,1007.73
2022-11-24T08:56:57.235Z,1008.12
2022-11-24T09:11:59.073Z,1008.06
2022-11-24T09:27:00.416Z,1008.23
2022-11-24T09:42:01.745Z,1008.27
2022-11-24T09:57:04.120Z,1008.24
2022-11-24T10:12:04.995Z,1008.32
2022-11-24T10:27:05.746Z,1008.43
2022-11-24T10:42:07.538Z,1008.52
2022-11-24T10:57:08.057Z,1008.59
2022-11-24T11:12:28.064Z,1008.60
2022-11-24T11:27:15.616Z,1008.62
2022-11-24T11:42:37.921Z,1008.63
2022-11-24T11:57:23.749Z,1008.64
2022-11-24T12:12:26.048Z,1008.71
2022-11-24T12:27:27.433Z,1008.75
2022-11-24T12:42:31.250Z,1008.85
2022-11-24T12:57:33.085Z,1008.82
2022-11-24T13:12:34.229Z,1008.78
2022-11-24T13:27:34.578Z,1008.93
2022-11-24T13:42:43.648Z,1009.37
2022-11-24T13:57:42.412Z,1009.37
2022-11-24T14:12:44.275Z,1009.42
2022-11-24T14:27:48.213Z,1009.71
2022-11-24T14:42:50.549Z,1009.89
2022-11-24T14:57:51.134Z,1009.92
2022-11-24T15:12:51.370Z,1010.09
2022-11-24T15:27:53.407Z,1010.15
2022-11-24T15:42:54.735Z,1010.35
2022-11-24T15:57:57.533Z,1010.44
2022-11-24T16:13:00.489Z,1010.55
2022-11-24T16:28:03.496Z,1010.57
2022-11-24T16:43:04.807Z,1010.76
2022-11-24T16:58:05.879Z,1010.77
2022-11-24T17:13:07.919Z,1010.85
2022-11-24T17:28:09.494Z,1010.84
2022-11-24T17:43:11.588Z,1010.94
2022-11-24T17:58:13.057Z,1011.09
2022-11-24T18:13:34.128Z,1011.13
2022-11-24T18:28:21.742Z,1011.15
2022-11-24T18:43:23.116Z,1011.13
2022-11-24T18:58:25.633Z,1011.31
2022-11-24T19:13:26.732Z,1011.22
2022-11-24T19:28:29.033Z,1011.38
2022-11-24T19:43:29.220Z,1011.35
2022-11-24T19:58:30.529Z,1011.61
2022-11-24T20:13:30.710Z,1011.86
2022-11-24T20:28:31.307Z,1011.92
2022-11-24T20:43:32.696Z,1011.95
2022-11-24T20:58:36.189Z,1012.08
2022-11-24T21:13:36.914Z,1012.02
2022-11-24T21:28:37.936Z,1012.05
2022-11-24T21:43:39.800Z,1012.28
2022-11-24T21:58:40.940Z,1012.37
2022-11-24T22:13:43.095Z,1012.48
2022-11-24T22:28:45.452Z,1012.36
2022-11-24T22:43:46.618Z,1012.51
2022-11-24T22:58:49.020Z,1012.55
2022-11-24T23:13:49.618Z,1012.70
2022-11-24T23:28:51.529Z,1012.70
2022-11-24T23:43:52.190Z,1012.75
2022-11-24T23:58:54.072Z,1012.64
